sensor_id;sensor_type;location;lat;lon;timestamp;temperature;humidity
30037;DHT22;36325;51.512;-0.382;2022-09-09T00:01:43;15.60;99.90
30037;DHT22;36325;51.512;-0.382;2022-09-09T00:04:34;15.60;99.90
30037;DHT22;36325;51.512;-0.382;2022-09-09T00:07:51;15.60;99.90
30037;DHT22;36325;51.512;-0.382;2022-09-09T00:10:00;15.60;99.90
30037;DHT22;36325;51.512;-0.382;2022-09-09T00:12:52;15.60;99.90
30037;DHT22;36325;51.512;-0.382;2022-09-09T00:18:30;15.70;99.90
30037;DHT22;36325;51.512;-0.382;2022-09-09T00:21:11;15.70;99.90
30037;DHT22;36325;51.512;-0.382;2022-09-09T00:23:49;15.70;99.90
30037;DHT22;36325;51.512;-0.382;2022-09-09T00:27:01;15.60;99.90
30037;DHT22;36325;51.512;-0.382;2022-09-09T00:29:31;15.70;99.90
30037;DHT22;36325;51.512;-0.382;2022-09-09T00:32:09;15.70;99.90
30037;DHT22;36325;51.512;-0.382;2022-09-09T00:34:50;15.70;99.90
30037;DHT22;36325;51.512;-0.382;2022-09-09T00:37:20;15.70;99.90
30037;DHT22;36325;51.512;-0.382;2022-09-09T00:39:49;15.70;99.90
30037;DHT22;36325;51.512;-0.382;2022-09-09T00:42:24;15.70;99.90
30037;DHT22;36325;51.512;-0.382;2022-09-09T00:47:52;15.80;99.90
30037;DHT22;36325;51.512;-0.382;2022-09-09T00:54:07;15.80;99.90
30037;DHT22;36325;51.512;-0.382;2022-09-09T00:56:50;15.70;99.90
30037;DHT22;36325;51.512;-0.382;2022-09-09T00:59:32;15.80;99.90
30037;DHT22;36325;51.512;-0.382;2022-09-09T01:07:48;15.80;99.90
30037;DHT22;36325;51.512;-0.382;2022-09-09T01:13:15;15.80;99.90
30037;DHT22;36325;51.512;-0.382;2022-09-09T01:15:44;15.80;99.90
30037;DHT22;36325;51.512;-0.382;2022-09-09T01:18:17;15.80;99.90
30037;DHT22;36325;51.512;-0.382;2022-09-09T01:26:29;15.80;99.90
30037;DHT22;36325;51.512;-0.382;2022-09-09T01:29:01;15.90;99.90
30037;DHT22;36325;51.512;-0.382;2022-09-09T01:34:28;15.80;99.90
30037;DHT22;36325;51.512;-0.382;2022-09-09T01:37:03;15.90;99.90
30037;DHT22;36325;51.512;-0.382;2022-09-09T01:39:33;15.80;99.90
30037;DHT22;36325;51.512;-0.382;2022-09-09T01:42:09;15.80;99.90
30037;DHT22;36325;51.512;-0.382;2022-09-09T01:44:39;15.80;99.90
30037;DHT22;36325;51.512;-0.382;2022-09-09T01:47:06;15.80;99.90
30037;DHT22;36325;51.512;-0.382;2022-09-09T01:49:39;15.80;99.90
30037;DHT22;36325;51.512;-0.382;2022-09-09T01:52:16;15.70;99.90
30037;DHT22;36325;51.512;-0.382;2022-09-09T01:54:43;15.80;99.90
30037;DHT22;36325;51.512;-0.382;2022-09-09T02:00:11;15.80;99.90
30037;DHT22;36325;51.512;-0.382;2022-09-09T02:05:40;15.80;99.90
30037;DHT22;36325;51.512;-0.382;2022-09-09T02:08:42;15.80;99.90
30037;DHT22;36325;51.512;-0.382;2022-09-09T02:11:15;15.80;99.90
30037;DHT22;36325;51.512;-0.382;2022-09-09T02:13:54;15.80;99.90
30037;DHT22;36325;51.512;-0.382;2022-09-09T02:16:35;15.80;99.90
30037;DHT22;36325;51.512;-0.382;2022-09-09T02:19:14;15.80;99.90
30037;DHT22;36325;51.512;-0.382;2022-09-09T02:22:00;15.80;99.90
30037;DHT22;36325;51.512;-0.382;2022-09-09T02:24:32;15.70;99.90
30037;DHT22;36325;51.512;-0.382;2022-09-09T02:27:24;15.70;99.90
30037;DHT22;36325;51.512;-0.382;2022-09-09T02:29:53;15.70;99.90
30037;DHT22;36325;51.512;-0.382;2022-09-09T02:32:35;15.70;99.90
30037;DHT22;36325;51.512;-0.382;2022-09-09T02:35:12;15.70;99.90
30037;DHT22;36325;51.512;-0.382;2022-09-09T02:37:44;15.70;99.90
30037;DHT22;36325;51.512;-0.382;2022-09-09T02:40:16;15.70;99.90
30037;DHT22;36325;51.512;-0.382;2022-09-09T02:42:51;15.70;99.90
30037;DHT22;36325;51.512;-0.382;2022-09-09T02:45:27;15.70;99.90
30037;DHT22;36325;51.512;-0.382;2022-09-09T02:48:14;15.70;99.90
30037;DHT22;36325;51.512;-0.382;2022-09-09T02:53:23;15.70;99.90
30037;DHT22;36325;51.512;-0.382;2022-09-09T02:56:14;15.70;99.90
30037;DHT22;36325;51.512;-0.382;2022-09-09T02:58:44;16.70;99.90
30037;DHT22;36325;51.512;-0.382;2022-09-09T03:01:13;15.70;99.90
30037;DHT22;36325;51.512;-0.382;2022-09-09T03:03:41;15.70;99.90
30037;DHT22;36325;51.512;-0.382;2022-09-09T03:06:13;15.70;99.90
30037;DHT22;36325;51.512;-0.382;2022-09-09T03:08:43;15.70;99.90
30037;DHT22;36325;51.512;-0.382;2022-09-09T03:11:17;15.70;99.90
30037;DHT22;36325;51.512;-0.382;2022-09-09T03:13:44;15.70;99.90
30037;DHT22;36325;51.512;-0.382;2022-09-09T03:16:12;15.70;99.90
30037;DHT22;36325;51.512;-0.382;2022-09-09T03:18:43;15.80;99.90
30037;DHT22;36325;51.512;-0.382;2022-09-09T03:21:12;15.70;99.90
30037;DHT22;36325;51.512;-0.382;2022-09-09T03:23:41;15.70;99.90
30037;DHT22;36325;51.512;-0.382;2022-09-09T03:26:09;15.70;99.90
30037;DHT22;36325;51.512;-0.382;2022-09-09T03:28:43;15.70;99.90
30037;DHT22;36325;51.512;-0.382;2022-09-09T03:31:15;15.70;99.90
30037;DHT22;36325;51.512;-0.382;2022-09-09T03:33:42;15.70;99.90
30037;DHT22;36325;51.512;-0.382;2022-09-09T03:36:15;15.70;99.90
30037;DHT22;36325;51.512;-0.382;2022-09-09T03:38:42;15.70;99.90
30037;DHT22;36325;51.512;-0.382;2022-09-09T03:41:10;15.70;99.90
30037;DHT22;36325;51.512;-0.382;2022-09-09T03:43:38;15.70;99.90
30037;DHT22;36325;51.512;-0.382;2022-09-09T03:46:06;15.70;99.90
30037;DHT22;36325;51.512;-0.382;2022-09-09T03:48:33;15.70;99.90
30037;DHT22;36325;51.512;-0.382;2022-09-09T03:51:03;15.70;99.90
30037;DHT22;36325;51.512;-0.382;2022-09-09T03:53:31;15.70;99.90
30037;DHT22;36325;51.512;-0.382;2022-09-09T03:56:02;15.60;99.90
30037;DHT22;36325;51.512;-0.382;2022-09-09T03:58:30;15.60;99.90
30037;DHT22;36325;51.512;-0.382;2022-09-09T04:01:06;15.60;99.90
30037;DHT22;36325;51.512;-0.382;2022-09-09T04:03:36;15.60;99.90
30037;DHT22;36325;51.512;-0.382;2022-09-09T04:06:05;15.50;99.90
30037;DHT22;36325;51.512;-0.382;2022-09-09T04:08:34;15.50;99.90
30037;DHT22;36325;51.512;-0.382;2022-09-09T04:11:03;15.50;99.90
30037;DHT22;36325;51.512;-0.382;2022-09-09T04:13:35;15.60;99.90
30037;DHT22;36325;51.512;-0.382;2022-09-09T04:16:08;15.50;99.90
30037;DHT22;36325;51.512;-0.382;2022-09-09T04:18:37;15.50;99.90
30037;DHT22;36325;51.512;-0.382;2022-09-09T04:21:05;15.60;99.90
30037;DHT22;36325;51.512;-0.382;2022-09-09T04:23:34;15.50;99.90
30037;DHT22;36325;51.512;-0.382;2022-09-09T04:26:03;15.60;99.90
30037;DHT22;36325;51.512;-0.382;2022-09-09T04:28:34;15.50;99.90
30037;DHT22;36325;51.512;-0.382;2022-09-09T04:31:12;15.50;99.90
30037;DHT22;36325;51.512;-0.382;2022-09-09T04:33:41;15.50;99.90
30037;DHT22;36325;51.512;-0.382;2022-09-09T04:36:09;15.50;99.90
30037;DHT22;36325;51.512;-0.382;2022-09-09T04:38:37;15.50;99.90
30037;DHT22;36325;51.512;-0.382;2022-09-09T04:41:04;15.50;99.90
30037;DHT22;36325;51.512;-0.382;2022-09-09T04:43:34;15.50;99.90
30037;DHT22;36325;51.512;-0.382;2022-09-09T04:46:04;16.50;99.90
30037;DHT22;36325;51.512;-0.382;2022-09-09T04:48:32;15.50;99.90
30037;DHT22;36325;51.512;-0.382;2022-09-09T04:51:06;15.50;99.90
30037;DHT22;36325;51.512;-0.382;2022-09-09T04:53:34;15.50;99.90
30037;DHT22;36325;51.512;-0.382;2022-09-09T04:56:03;15.40;99.90
30037;DHT22;36325;51.512;-0.382;2022-09-09T04:58:35;15.50;99.90
30037;DHT22;36325;51.512;-0.382;2022-09-09T05:01:14;15.50;99.90
30037;DHT22;36325;51.512;-0.382;2022-09-09T05:03:44;15.50;99.90
30037;DHT22;36325;51.512;-0.382;2022-09-09T05:06:21;15.50;99.90
30037;DHT22;36325;51.512;-0.382;2022-09-09T05:08:55;15.40;99.90
30037;DHT22;36325;51.512;-0.382;2022-09-09T05:11:30;15.50;99.90
30037;DHT22;36325;51.512;-0.382;2022-09-09T05:14:05;15.40;99.90
30037;DHT22;36325;51.512;-0.382;2022-09-09T05:16:32;15.40;99.90
30037;DHT22;36325;51.512;-0.382;2022-09-09T05:19:00;15.40;99.90
30037;DHT22;36325;51.512;-0.382;2022-09-09T05:21:41;15.40;99.90
30037;DHT22;36325;51.512;-0.382;2022-09-09T05:24:09;15.40;99.90
30037;DHT22;36325;51.512;-0.382;2022-09-09T05:26:36;15.40;99.90
30037;DHT22;36325;51.512;-0.382;2022-09-09T05:29:04;15.40;99.90
30037;DHT22;36325;51.512;-0.382;2022-09-09T05:31:32;15.40;99.90
30037;DHT22;36325;51.512;-0.382;2022-09-09T05:34:03;15.40;99.90
30037;DHT22;36325;51.512;-0.382;2022-09-09T05:36:30;15.50;99.90
30037;DHT22;36325;51.512;-0.382;2022-09-09T05:39:00;15.40;99.90
30037;DHT22;36325;51.512;-0.382;2022-09-09T05:41:31;15.40;99.90
30037;DHT22;36325;51.512;-0.382;2022-09-09T05:44:01;15.40;99.90
30037;DHT22;36325;51.512;-0.382;2022-09-09T05:46:33;15.50;99.90
30037;DHT22;36325;51.512;-0.382;2022-09-09T05:49:03;15.40;99.90
30037;DHT22;36325;51.512;-0.382;2022-09-09T05:51:32;15.40;99.90
30037;DHT22;36325;51.512;-0.382;2022-09-09T05:54:06;15.40;99.90
30037;DHT22;36325;51.512;-0.382;2022-09-09T05:56:38;15.40;99.90
30037;DHT22;36325;51.512;-0.382;2022-09-09T05:59:07;15.50;99.90
30037;DHT22;36325;51.512;-0.382;2022-09-09T06:01:36;15.50;99.90
30037;DHT22;36325;51.512;-0.382;2022-09-09T06:04:12;15.50;99.90
30037;DHT22;36325;51.512;-0.382;2022-09-09T06:06:40;15.50;99.90
30037;DHT22;36325;51.512;-0.382;2022-09-09T06:09:12;15.50;99.90
30037;DHT22;36325;51.512;-0.382;2022-09-09T06:11:43;15.50;99.90
30037;DHT22;36325;51.512;-0.382;2022-09-09T06:14:11;15.60;99.90
30037;DHT22;36325;51.512;-0.382;2022-09-09T06:16:39;15.50;99.90
30037;DHT22;36325;51.512;-0.382;2022-09-09T06:19:16;15.60;99.90
30037;DHT22;36325;51.512;-0.382;2022-09-09T06:21:44;15.60;99.90
30037;DHT22;36325;51.512;-0.382;2022-09-09T06:24:12;15.60;99.90
30037;DHT22;36325;51.512;-0.382;2022-09-09T06:26:44;15.60;99.90
30037;DHT22;36325;51.512;-0.382;2022-09-09T06:29:19;15.60;99.90
30037;DHT22;36325;51.512;-0.382;2022-09-09T06:31:46;15.70;99.90
30037;DHT22;36325;51.512;-0.382;2022-09-09T06:34:23;15.80;99.90
30037;DHT22;36325;51.512;-0.382;2022-09-09T06:36:54;15.80;99.90
30037;DHT22;36325;51.512;-0.382;2022-09-09T06:39:28;15.80;99.90
30037;DHT22;36325;51.512;-0.382;2022-09-09T06:41:55;15.90;99.90
30037;DHT22;36325;51.512;-0.382;2022-09-09T06:44:47;15.90;99.90
30037;DHT22;36325;51.512;-0.382;2022-09-09T06:47:24;15.90;99.90
30037;DHT22;36325;51.512;-0.382;2022-09-09T06:49:52;16.00;99.90
30037;DHT22;36325;51.512;-0.382;2022-09-09T06:52:20;16.00;99.90
30037;DHT22;36325;51.512;-0.382;2022-09-09T06:54:47;16.00;99.90
30037;DHT22;36325;51.512;-0.382;2022-09-09T06:57:16;16.00;99.90
30037;DHT22;36325;51.512;-0.382;2022-09-09T07:00:05;16.10;99.90
30037;DHT22;36325;51.512;-0.382;2022-09-09T07:02:33;16.10;99.90
30037;DHT22;36325;51.512;-0.382;2022-09-09T07:05:07;16.10;99.90
30037;DHT22;36325;51.512;-0.382;2022-09-09T07:07:36;16.20;99.90
30037;DHT22;36325;51.512;-0.382;2022-09-09T07:10:04;16.10;99.90
30037;DHT22;36325;51.512;-0.382;2022-09-09T07:12:32;16.10;99.90
30037;DHT22;36325;51.512;-0.382;2022-09-09T07:15:00;16.10;99.90
30037;DHT22;36325;51.512;-0.382;2022-09-09T07:17:27;16.20;99.90
30037;DHT22;36325;51.512;-0.382;2022-09-09T07:19:57;16.30;99.90
30037;DHT22;36325;51.512;-0.382;2022-09-09T07:22:25;16.30;99.90
30037;DHT22;36325;51.512;-0.382;2022-09-09T07:24:54;16.40;99.90
30037;DHT22;36325;51.512;-0.382;2022-09-09T07:27:21;16.50;99.90
30037;DHT22;36325;51.512;-0.382;2022-09-09T07:29:49;16.60;99.90
30037;DHT22;36325;51.512;-0.382;2022-09-09T07:32:17;16.70;99.90
30037;DHT22;36325;51.512;-0.382;2022-09-09T07:34:44;16.80;99.90
30037;DHT22;36325;51.512;-0.382;2022-09-09T07:37:13;16.90;99.90
30037;DHT22;36325;51.512;-0.382;2022-09-09T07:42:11;16.90;99.90
30037;DHT22;36325;51.512;-0.382;2022-09-09T07:44:39;16.90;99.90
30037;DHT22;36325;51.512;-0.382;2022-09-09T07:47:13;16.90;99.90
30037;DHT22;36325;51.512;-0.382;2022-09-09T07:49:46;16.90;99.90
30037;DHT22;36325;51.512;-0.382;2022-09-09T07:52:16;16.90;99.90
30037;DHT22;36325;51.512;-0.382;2022-09-09T07:54:46;16.90;99.90
30037;DHT22;36325;51.512;-0.382;2022-09-09T07:57:14;16.90;99.90
30037;DHT22;36325;51.512;-0.382;2022-09-09T07:59:45;16.90;99.90
30037;DHT22;36325;51.512;-0.382;2022-09-09T08:02:13;16.90;99.90
30037;DHT22;36325;51.512;-0.382;2022-09-09T08:04:41;16.80;99.90
30037;DHT22;36325;51.512;-0.382;2022-09-09T08:07:09;16.90;99.90
30037;DHT22;36325;51.512;-0.382;2022-09-09T08:09:55;16.90;99.90
30037;DHT22;36325;51.512;-0.382;2022-09-09T08:12:28;16.80;99.90
30037;DHT22;36325;51.512;-0.382;2022-09-09T08:14:56;16.80;99.90
30037;DHT22;36325;51.512;-0.382;2022-09-09T08:17:28;16.70;99.90
30037;DHT22;36325;51.512;-0.382;2022-09-09T08:19:58;16.60;99.90
30037;DHT22;36325;51.512;-0.382;2022-09-09T08:22:33;14.10;99.90
30037;DHT22;36325;51.512;-0.382;2022-09-09T08:25:01;16.10;99.90
30037;DHT22;36325;51.512;-0.382;2022-09-09T08:27:30;16.60;99.90
30037;DHT22;36325;51.512;-0.382;2022-09-09T08:29:59;16.50;99.90
30037;DHT22;36325;51.512;-0.382;2022-09-09T08:32:28;16.50;99.90
30037;DHT22;36325;51.512;-0.382;2022-09-09T08:34:55;16.50;99.90
30037;DHT22;36325;51.512;-0.382;2022-09-09T08:37:27;16.50;99.90
30037;DHT22;36325;51.512;-0.382;2022-09-09T08:39:56;16.40;99.90
30037;DHT22;36325;51.512;-0.382;2022-09-09T08:42:35;16.40;99.90
30037;DHT22;36325;51.512;-0.382;2022-09-09T08:45:19;16.50;99.90
30037;DHT22;36325;51.512;-0.382;2022-09-09T08:47:51;16.40;99.90
30037;DHT22;36325;51.512;-0.382;2022-09-09T08:50:30;16.60;99.90
30037;DHT22;36325;51.512;-0.382;2022-09-09T08:53:13;16.70;99.90
30037;DHT22;36325;51.512;-0.382;2022-09-09T08:58:24;16.90;99.90
30037;DHT22;36325;51.512;-0.382;2022-09-09T09:09:17;17.30;99.90
30037;DHT22;36325;51.512;-0.382;2022-09-09T09:11:51;17.40;99.90
30037;DHT22;36325;51.512;-0.382;2022-09-09T09:14:21;17.40;99.90
30037;DHT22;36325;51.512;-0.382;2022-09-09T09:17:02;17.50;99.90
30037;DHT22;36325;51.512;-0.382;2022-09-09T09:19:39;17.60;99.90
30037;DHT22;36325;51.512;-0.382;2022-09-09T09:25:22;17.80;99.90
30037;DHT22;36325;51.512;-0.382;2022-09-09T09:31:06;18.00;99.90
30037;DHT22;36325;51.512;-0.382;2022-09-09T09:33:45;18.10;99.90
30037;DHT22;36325;51.512;-0.382;2022-09-09T09:36:32;18.20;99.90
30037;DHT22;36325;51.512;-0.382;2022-09-09T09:39:04;18.20;99.90
30037;DHT22;36325;51.512;-0.382;2022-09-09T09:41:53;18.30;99.90
30037;DHT22;36325;51.512;-0.382;2022-09-09T09:47:16;18.50;99.90
30037;DHT22;36325;51.512;-0.382;2022-09-09T09:49:58;18.60;99.90
30037;DHT22;36325;51.512;-0.382;2022-09-09T09:52:36;18.60;99.90
30037;DHT22;36325;51.512;-0.382;2022-09-09T09:55:13;18.50;99.90
30037;DHT22;36325;51.512;-0.382;2022-09-09T09:57:44;18.40;99.90
30037;DHT22;36325;51.512;-0.382;2022-09-09T10:00:21;18.40;99.90
30037;DHT22;36325;51.512;-0.382;2022-09-09T10:03:26;18.30;99.90
30037;DHT22;36325;51.512;-0.382;2022-09-09T10:05:55;18.20;99.90
30037;DHT22;36325;51.512;-0.382;2022-09-09T10:08:27;18.10;99.90
30037;DHT22;36325;51.512;-0.382;2022-09-09T10:16:29;18.00;99.90
30037;DHT22;36325;51.512;-0.382;2022-09-09T10:19:31;18.00;99.90
30037;DHT22;36325;51.512;-0.382;2022-09-09T10:38:39;18.60;99.90
30037;DHT22;36325;51.512;-0.382;2022-09-09T10:51:10;19.10;99.90
30037;DHT22;36325;51.512;-0.382;2022-09-09T10:54:18;19.50;99.90
30037;DHT22;36325;51.512;-0.382;2022-09-09T10:56:15;20.10;99.90
30037;DHT22;36325;51.512;-0.382;2022-09-09T11:01:24;20.10;99.90
30037;DHT22;36325;51.512;-0.382;2022-09-09T11:06:48;20.30;99.90
30037;DHT22;36325;51.512;-0.382;2022-09-09T11:09:24;20.60;99.90
30037;DHT22;36325;51.512;-0.382;2022-09-09T11:11:54;22.30;99.90
30037;DHT22;36325;51.512;-0.382;2022-09-09T11:14:36;21.20;99.90
30037;DHT22;36325;51.512;-0.382;2022-09-09T11:17:13;21.50;99.90
30037;DHT22;36325;51.512;-0.382;2022-09-09T11:19:43;21.40;99.90
30037;DHT22;36325;51.512;-0.382;2022-09-09T11:22:27;21.60;99.90
30037;DHT22;36325;51.512;-0.382;2022-09-09T11:25:01;21.70;99.90
30037;DHT22;36325;51.512;-0.382;2022-09-09T11:38:56;23.70;99.90
30037;DHT22;36325;51.512;-0.382;2022-09-09T11:41:34;23.50;99.90
30037;DHT22;36325;51.512;-0.382;2022-09-09T11:44:12;23.70;99.90
30037;DHT22;36325;51.512;-0.382;2022-09-09T11:46:41;23.70;99.90
30037;DHT22;36325;51.512;-0.382;2022-09-09T11:49:44;24.80;99.90
30037;DHT22;36325;51.512;-0.382;2022-09-09T11:52:21;25.30;99.90
30037;DHT22;36325;51.512;-0.382;2022-09-09T11:54:49;25.50;99.90
30037;DHT22;36325;51.512;-0.382;2022-09-09T11:57:33;25.60;99.90
30037;DHT22;36325;51.512;-0.382;2022-09-09T12:00:03;25.20;99.90
30037;DHT22;36325;51.512;-0.382;2022-09-09T12:02:48;25.00;99.90
30037;DHT22;36325;51.512;-0.382;2022-09-09T12:05:17;25.40;99.90
30037;DHT22;36325;51.512;-0.382;2022-09-09T12:07:57;25.80;99.90
30037;DHT22;36325;51.512;-0.382;2022-09-09T12:10:31;26.90;99.90
30037;DHT22;36325;51.512;-0.382;2022-09-09T12:13:23;27.80;99.90
30037;DHT22;36325;51.512;-0.382;2022-09-09T12:15:54;28.10;99.90
30037;DHT22;36325;51.512;-0.382;2022-09-09T12:18:40;28.50;99.90
30037;DHT22;36325;51.512;-0.382;2022-09-09T12:21:37;29.10;99.90
30037;DHT22;36325;51.512;-0.382;2022-09-09T12:24:10;29.40;99.90
30037;DHT22;36325;51.512;-0.382;2022-09-09T12:26:42;29.10;99.90
30037;DHT22;36325;51.512;-0.382;2022-09-09T12:31:49;28.10;99.90
30037;DHT22;36325;51.512;-0.382;2022-09-09T12:36:59;27.60;99.90
30037;DHT22;36325;51.512;-0.382;2022-09-09T12:39:42;27.50;99.90
30037;DHT22;36325;51.512;-0.382;2022-09-09T12:42:20;27.60;99.90
30037;DHT22;36325;51.512;-0.382;2022-09-09T12:44:52;28.10;99.90
30037;DHT22;36325;51.512;-0.382;2022-09-09T12:47:23;28.40;99.90
30037;DHT22;36325;51.512;-0.382;2022-09-09T12:49:56;28.90;99.90
30037;DHT22;36325;51.512;-0.382;2022-09-09T12:52:28;30.00;99.90
30037;DHT22;36325;51.512;-0.382;2022-09-09T12:55:02;30.60;99.90
30037;DHT22;36325;51.512;-0.382;2022-09-09T12:57:40;30.90;99.90
30037;DHT22;36325;51.512;-0.382;2022-09-09T13:00:19;31.40;99.90
30037;DHT22;36325;51.512;-0.382;2022-09-09T13:02:58;31.10;99.90
30037;DHT22;36325;51.512;-0.382;2022-09-09T13:05:36;30.20;99.90
30037;DHT22;36325;51.512;-0.382;2022-09-09T13:08:05;30.10;99.90
30037;DHT22;36325;51.512;-0.382;2022-09-09T13:10:40;31.30;99.90
30037;DHT22;36325;51.512;-0.382;2022-09-09T13:13:22;31.50;99.90
30037;DHT22;36325;51.512;-0.382;2022-09-09T13:15:52;30.30;99.90
30037;DHT22;36325;51.512;-0.382;2022-09-09T13:18:26;30.90;99.90
30037;DHT22;36325;51.512;-0.382;2022-09-09T13:20:54;31.40;99.90
30037;DHT22;36325;51.512;-0.382;2022-09-09T13:23:29;31.80;99.90
30037;DHT22;36325;51.512;-0.382;2022-09-09T13:26:01;31.90;99.90
30037;DHT22;36325;51.512;-0.382;2022-09-09T13:28:30;31.30;99.90
30037;DHT22;36325;51.512;-0.382;2022-09-09T13:31:19;31.50;99.90
30037;DHT22;36325;51.512;-0.382;2022-09-09T13:33:46;31.00;99.90
30037;DHT22;36325;51.512;-0.382;2022-09-09T13:36:14;30.20;99.90
30037;DHT22;36325;51.512;-0.382;2022-09-09T13:38:55;30.80;99.90
30037;DHT22;36325;51.512;-0.382;2022-09-09T13:41:35;31.00;99.90
30037;DHT22;36325;51.512;-0.382;2022-09-09T13:44:03;31.00;99.90
30037;DHT22;36325;51.512;-0.382;2022-09-09T13:46:38;30.30;99.90
30037;DHT22;36325;51.512;-0.382;2022-09-09T13:51:38;28.30;99.90
30037;DHT22;36325;51.512;-0.382;2022-09-09T13:54:10;27.30;99.90
30037;DHT22;36325;51.512;-0.382;2022-09-09T13:56:39;26.50;99.90
30037;DHT22;36325;51.512;-0.382;2022-09-09T13:59:11;26.20;99.90
30037;DHT22;36325;51.512;-0.382;2022-09-09T14:01:39;26.00;99.90
30037;DHT22;36325;51.512;-0.382;2022-09-09T14:04:06;25.90;99.90
30037;DHT22;36325;51.512;-0.382;2022-09-09T14:06:34;26.50;99.90
30037;DHT22;36325;51.512;-0.382;2022-09-09T14:09:05;27.30;99.90
30037;DHT22;36325;51.512;-0.382;2022-09-09T14:11:33;28.00;99.90
30037;DHT22;36325;51.512;-0.382;2022-09-09T14:14:01;28.10;99.90
30037;DHT22;36325;51.512;-0.382;2022-09-09T14:16:28;27.50;99.90
30037;DHT22;36325;51.512;-0.382;2022-09-09T14:18:56;26.80;99.90
30037;DHT22;36325;51.512;-0.382;2022-09-09T14:21:24;26.30;99.90
30037;DHT22;36325;51.512;-0.382;2022-09-09T14:23:52;26.90;99.90
30037;DHT22;36325;51.512;-0.382;2022-09-09T14:26:21;27.90;99.90
30037;DHT22;36325;51.512;-0.382;2022-09-09T14:28:48;28.80;99.90
30037;DHT22;36325;51.512;-0.382;2022-09-09T14:31:21;29.90;99.90
30037;DHT22;36325;51.512;-0.382;2022-09-09T14:33:49;30.10;99.90
30037;DHT22;36325;51.512;-0.382;2022-09-09T14:36:17;31.30;99.90
30037;DHT22;36325;51.512;-0.382;2022-09-09T14:38:44;30.70;99.90
30037;DHT22;36325;51.512;-0.382;2022-09-09T14:41:13;29.80;99.90
30037;DHT22;36325;51.512;-0.382;2022-09-09T14:43:44;29.60;99.90
30037;DHT22;36325;51.512;-0.382;2022-09-09T14:46:15;28.10;99.90
30037;DHT22;36325;51.512;-0.382;2022-09-09T14:48:43;28.10;99.90
30037;DHT22;36325;51.512;-0.382;2022-09-09T14:51:22;28.30;99.90
30037;DHT22;36325;51.512;-0.382;2022-09-09T14:53:55;28.60;99.90
30037;DHT22;36325;51.512;-0.382;2022-09-09T14:56:25;27.70;99.90
30037;DHT22;36325;51.512;-0.382;2022-09-09T14:58:54;27.30;99.90
30037;DHT22;36325;51.512;-0.382;2022-09-09T15:01:23;26.80;99.90
30037;DHT22;36325;51.512;-0.382;2022-09-09T15:04:00;26.10;99.90
30037;DHT22;36325;51.512;-0.382;2022-09-09T15:06:31;25.60;99.90
30037;DHT22;36325;51.512;-0.382;2022-09-09T15:09:00;25.20;99.90
30037;DHT22;36325;51.512;-0.382;2022-09-09T15:11:33;24.80;99.90
30037;DHT22;36325;51.512;-0.382;2022-09-09T15:14:05;24.50;99.90
30037;DHT22;36325;51.512;-0.382;2022-09-09T15:16:33;24.20;99.90
30037;DHT22;36325;51.512;-0.382;2022-09-09T15:19:02;23.80;99.90
30037;DHT22;36325;51.512;-0.382;2022-09-09T15:21:32;23.10;99.90
30037;DHT22;36325;51.512;-0.382;2022-09-09T15:24:01;22.60;99.90
30037;DHT22;36325;51.512;-0.382;2022-09-09T15:26:28;22.30;99.90
30037;DHT22;36325;51.512;-0.382;2022-09-09T15:28:57;22.30;99.90
30037;DHT22;36325;51.512;-0.382;2022-09-09T15:31:30;22.30;99.90
30037;DHT22;36325;51.512;-0.382;2022-09-09T15:34:01;22.10;99.90
30037;DHT22;36325;51.512;-0.382;2022-09-09T15:39:03;22.00;99.90
30037;DHT22;36325;51.512;-0.382;2022-09-09T15:41:30;21.70;99.90
30037;DHT22;36325;51.512;-0.382;2022-09-09T15:44:01;21.70;99.90
30037;DHT22;36325;51.512;-0.382;2022-09-09T15:46:39;21.70;99.90
30037;DHT22;36325;51.512;-0.382;2022-09-09T15:49:17;21.70;99.90
30037;DHT22;36325;51.512;-0.382;2022-09-09T15:51:47;21.80;99.90
30037;DHT22;36325;51.512;-0.382;2022-09-09T15:54:17;21.80;99.90
30037;DHT22;36325;51.512;-0.382;2022-09-09T15:56:55;21.90;99.90
30037;DHT22;36325;51.512;-0.382;2022-09-09T15:59:24;21.90;99.90
30037;DHT22;36325;51.512;-0.382;2022-09-09T16:01:52;21.80;99.90
30037;DHT22;36325;51.512;-0.382;2022-09-09T16:04:20;21.60;99.90
30037;DHT22;36325;51.512;-0.382;2022-09-09T16:06:55;21.40;99.90
30037;DHT22;36325;51.512;-0.382;2022-09-09T16:09:25;21.10;99.90
30037;DHT22;36325;51.512;-0.382;2022-09-09T16:11:56;20.80;99.90
30037;DHT22;36325;51.512;-0.382;2022-09-09T16:14:24;20.70;99.90
30037;DHT22;36325;51.512;-0.382;2022-09-09T16:16:52;20.60;99.90
30037;DHT22;36325;51.512;-0.382;2022-09-09T16:19:19;20.60;99.90
30037;DHT22;36325;51.512;-0.382;2022-09-09T16:21:49;20.50;99.90
30037;DHT22;36325;51.512;-0.382;2022-09-09T16:24:18;20.50;99.90
30037;DHT22;36325;51.512;-0.382;2022-09-09T16:26:48;20.40;99.90
30037;DHT22;36325;51.512;-0.382;2022-09-09T16:29:17;20.30;99.90
30037;DHT22;36325;51.512;-0.382;2022-09-09T16:31:45;20.30;99.90
30037;DHT22;36325;51.512;-0.382;2022-09-09T16:34:15;20.20;99.90
30037;DHT22;36325;51.512;-0.382;2022-09-09T16:36:43;20.20;99.90
30037;DHT22;36325;51.512;-0.382;2022-09-09T16:39:16;20.10;99.90
30037;DHT22;36325;51.512;-0.382;2022-09-09T16:41:45;20.20;99.90
30037;DHT22;36325;51.512;-0.382;2022-09-09T16:44:14;20.10;99.90
30037;DHT22;36325;51.512;-0.382;2022-09-09T16:46:43;20.20;99.90
30037;DHT22;36325;51.512;-0.382;2022-09-09T16:49:12;20.20;99.90
30037;DHT22;36325;51.512;-0.382;2022-09-09T16:51:50;20.30;99.90
30037;DHT22;36325;51.512;-0.382;2022-09-09T16:54:20;20.20;99.90
30037;DHT22;36325;51.512;-0.382;2022-09-09T16:56:48;20.20;99.90
30037;DHT22;36325;51.512;-0.382;2022-09-09T16:59:18;20.20;99.90
30037;DHT22;36325;51.512;-0.382;2022-09-09T17:01:48;20.20;99.90
30037;DHT22;36325;51.512;-0.382;2022-09-09T17:04:18;20.10;99.90
30037;DHT22;36325;51.512;-0.382;2022-09-09T17:06:49;20.10;99.90
30037;DHT22;36325;51.512;-0.382;2022-09-09T17:09:17;20.10;99.90
30037;DHT22;36325;51.512;-0.382;2022-09-09T17:11:45;20.00;99.90
30037;DHT22;36325;51.512;-0.382;2022-09-09T17:14:15;19.90;99.90
30037;DHT22;36325;51.512;-0.382;2022-09-09T17:16:44;19.80;99.90
30037;DHT22;36325;51.512;-0.382;2022-09-09T17:19:12;19.80;99.90
30037;DHT22;36325;51.512;-0.382;2022-09-09T17:21:39;19.60;99.90
30037;DHT22;36325;51.512;-0.382;2022-09-09T17:24:27;19.40;99.90
30037;DHT22;36325;51.512;-0.382;2022-09-09T17:26:56;19.20;99.90
30037;DHT22;36325;51.512;-0.382;2022-09-09T17:29:24;19.00;99.90
30037;DHT22;36325;51.512;-0.382;2022-09-09T17:31:51;18.90;99.90
30037;DHT22;36325;51.512;-0.382;2022-09-09T17:34:19;18.60;99.90
30037;DHT22;36325;51.512;-0.382;2022-09-09T17:36:46;18.30;99.90
30037;DHT22;36325;51.512;-0.382;2022-09-09T17:39:13;18.10;99.90
30037;DHT22;36325;51.512;-0.382;2022-09-09T17:41:41;17.90;99.90
30037;DHT22;36325;51.512;-0.382;2022-09-09T17:44:08;17.80;99.90
30037;DHT22;36325;51.512;-0.382;2022-09-09T17:46:38;17.70;99.90